Time;durP1;ratioP1;P1;durP2;ratioP2;P2;SDS_P1;SDS_P2;PMS_P1;PMS_P2;Temp;Humidity;BMP_temperature;BMP_pressure;BME280_temperature;BME280_humidity;BME280_pressure;Samples;Min_cycle;Max_cycle;Signal;HPM_P1;HPM_P2
2022/06/11 00:00:57;;;;;;;10.95;10.07;;;;;;;19.67;nan;94455.19;5073255;28;20194;-71
2022/06/11 00:03:25;;;;;;;9.10;8.52;;;;;;;20.10;nan;94451.78;5075725;28;21245;-70
2022/06/11 00:05:53;;;;;;;10.90;9.82;;;;;;;20.17;nan;94447.78;5074692;28;20201;-69
2022/06/11 00:08:21;;;;;;;10.02;9.32;;;;;;;20.04;nan;94442.75;5076180;28;20233;-71
2022/06/11 00:10:48;;;;;;;10.50;9.70;;;;;;;19.86;nan;94454.56;5075275;28;20404;-71
2022/06/11 00:13:15;;;;;;;9.95;9.25;;;;;;;19.76;nan;94452.84;5074443;28;20259;-70
2022/06/11 00:15:43;;;;;;;11.10;10.18;;;;;;;19.44;nan;94458.72;5075093;28;20197;-70
2022/06/11 00:18:11;;;;;;;9.52;8.75;;;;;;;19.37;nan;94452.41;5075678;28;20584;-70
2022/06/11 00:20:38;;;;;;;10.70;9.93;;;;;;;19.26;nan;94450.69;5074848;28;20565;-71
2022/06/11 00:23:07;;;;;;;10.90;10.10;;;;;;;19.09;nan;94452.88;5075520;28;20251;-70
2022/06/11 00:25:34;;;;;;;10.93;10.05;;;;;;;18.90;nan;94454.28;5072745;28;20221;-70
2022/06/11 00:28:01;;;;;;;10.43;9.50;;;;;;;18.73;nan;94452.19;5074834;28;20240;-70
2022/06/11 00:30:28;;;;;;;10.73;9.85;;;;;;;18.60;nan;94451.44;5075319;28;20209;-71
2022/06/11 00:32:56;;;;;;;10.70;10.00;;;;;;;18.84;nan;94449.59;5075031;28;20207;-72
2022/06/11 00:35:25;;;;;;;9.52;8.75;;;;;;;18.73;nan;94457.34;5074186;28;20284;-70
2022/06/11 00:37:52;;;;;;;10.07;9.40;;;;;;;18.63;nan;94454.63;5074807;28;20209;-70
2022/06/11 00:40:26;;;;;;;13.68;9.98;;;;;;;18.33;nan;94459.41;5074674;28;20221;-71
2022/06/11 00:42:53;;;;;;;12.25;11.05;;;;;;;17.86;nan;94461.09;5074935;28;20202;-71
2022/06/11 00:45:26;;;;;;;12.20;11.10;;;;;;;17.74;nan;94456.84;5074572;28;20612;-71
2022/06/11 00:47:58;;;;;;;12.05;11.02;;;;;;;17.89;nan;94460.06;5075489;28;20256;-71
2022/06/11 00:50:32;;;;;;;11.80;10.80;;;;;;;17.89;nan;94454.94;5074355;28;20205;-72
2022/06/11 00:53:00;;;;;;;11.65;10.75;;;;;;;17.67;nan;94459.03;5075746;28;20235;-70
2022/06/11 00:55:32;;;;;;;13.93;11.15;;;;;;;17.79;nan;94459.94;5074241;28;20193;-71
2022/06/11 00:58:04;;;;;;;12.95;11.00;;;;;;;18.01;nan;94459.22;5075223;28;20217;-71
2022/06/11 01:00:40;;;;;;;11.55;10.65;;;;;;;17.94;nan;94463.13;5074783;28;20217;-70
2022/06/11 01:03:07;;;;;;;12.10;11.10;;;;;;;18.15;nan;94453.88;5073806;28;20270;-72
2022/06/11 01:05:38;;;;;;;12.57;11.43;;;;;;;17.91;nan;94463.34;5074721;28;20197;-71
2022/06/11 01:08:34;;;;;;;12.18;11.10;;;;;;;17.96;nan;94461.28;5074078;28;20230;-71
2022/06/11 01:11:47;;;;;;;12.13;11.13;;;;;;;17.93;nan;94451.22;5074708;28;20294;-70
2022/06/11 01:14:31;;;;;;;12.18;11.15;;;;;;;18.25;nan;94454.03;5066991;28;20202;-71
2022/06/11 01:17:09;;;;;;;12.88;11.68;;;;;;;18.48;nan;94457.47;5075613;28;20570;-70
2022/06/11 01:20:12;;;;;;;13.07;11.95;;;;;;;18.63;nan;94446.06;5073880;28;20868;-70
2022/06/11 01:23:12;;;;;;;10.93;10.02;;;;;;;18.50;nan;94461.59;5074336;28;20255;-71
2022/06/11 01:25:53;;;;;;;10.95;10.15;;;;;;;18.48;nan;94453.16;5059178;28;20232;-71
2022/06/11 01:28:56;;;;;;;11.73;10.82;;;;;;;18.51;nan;94462.41;5073385;28;20233;-71
2022/06/11 01:31:30;;;;;;;11.77;10.80;;;;;;;18.36;nan;94454.88;5073439;28;20186;-71
2022/06/11 01:34:08;;;;;;;13.02;11.23;;;;;;;18.26;nan;94461.63;5074019;28;20205;-71
2022/06/11 01:36:40;;;;;;;12.13;10.82;;;;;;;18.41;nan;94464.00;5076493;28;20205;-71
2022/06/11 01:39:19;;;;;;;11.30;10.50;;;;;;;18.27;nan;94454.75;5076937;28;20213;-71
2022/06/11 01:41:50;;;;;;;12.45;11.35;;;;;;;18.22;nan;94456.81;5076951;28;20221;-70
2022/06/11 01:44:22;;;;;;;13.18;11.95;;;;;;;18.29;nan;94460.59;5076241;28;20202;-72
2022/06/11 01:46:52;;;;;;;11.52;10.43;;;;;;;18.26;nan;94464.22;5076760;28;20841;-71
2022/06/11 01:49:43;;;;;;;12.98;11.98;;;;;;;18.18;nan;94448.50;5076079;28;20230;-71
2022/06/11 01:52:28;;;;;;;12.30;11.20;;;;;;;18.10;nan;94458.53;5076894;28;20208;-72
2022/06/11 01:55:02;;;;;;;13.45;12.30;;;;;;;18.08;nan;94468.09;5076000;28;20206;-71
2022/06/11 01:57:52;;;;;;;14.02;12.82;;;;;;;18.08;nan;94464.69;5078716;28;20204;-72
2022/06/11 02:00:21;;;;;;;12.68;11.63;;;;;;;18.10;nan;94463.66;5078301;28;20205;-72
2022/06/11 02:03:03;;;;;;;15.25;13.68;;;;;;;18.03;nan;94465.06;5078415;28;20293;-71
2022/06/11 02:05:41;;;;;;;13.05;12.05;;;;;;;18.11;nan;94460.16;5077775;28;20700;-72
2022/06/11 02:08:21;;;;;;;14.98;11.50;;;;;;;18.05;nan;94455.50;5078758;28;20264;-71
2022/06/11 02:10:56;;;;;;;13.63;12.52;;;;;;;18.18;nan;94461.38;5078056;28;20607;-72
2022/06/11 02:13:30;;;;;;;14.27;12.43;;;;;;;18.16;nan;94457.25;5078483;28;21332;-72
2022/06/11 02:16:03;;;;;;;12.48;11.20;;;;;;;18.21;nan;94457.75;5077317;28;20208;-72
2022/06/11 02:18:32;;;;;;;12.82;11.68;;;;;;;18.24;nan;94460.94;5078297;28;20202;-71
2022/06/11 02:21:06;;;;;;;13.82;12.45;;;;;;;18.22;nan;94460.22;5077771;28;20212;-72
2022/06/11 02:23:37;;;;;;;12.63;11.63;;;;;;;18.42;nan;94465.66;5078257;28;20206;-72
2022/06/11 02:26:10;;;;;;;13.52;12.38;;;;;;;18.27;nan;94452.16;5076986;28;20311;-72
2022/06/11 02:28:42;;;;;;;13.35;12.27;;;;;;;18.28;nan;94467.50;5078049;28;20229;-72
2022/06/11 02:31:11;;;;;;;13.23;11.90;;;;;;;18.20;nan;94467.22;5077802;28;20208;-71
2022/06/11 02:33:41;;;;;;;13.88;12.48;;;;;;;18.27;nan;94465.84;5078615;28;20217;-72
2022/06/11 02:36:20;;;;;;;15.52;14.02;;;;;;;18.02;nan;94463.41;5077306;28;20586;-72
2022/06/11 02:38:48;;;;;;;15.90;14.40;;;;;;;17.89;nan;94465.22;5077735;28;20209;-71
2022/06/11 02:41:18;;;;;;;14.68;13.38;;;;;;;17.79;nan;94469.38;5077265;28;20228;-71
2022/06/11 02:43:45;;;;;;;15.77;14.18;;;;;;;17.88;nan;94473.84;5077730;28;20650;-71
2022/06/11 02:49:00;;;;;;;15.32;13.88;;;;;;;17.90;nan;94466.84;5077570;28;20237;-71
2022/06/11 02:51:29;;;;;;;17.85;14.35;;;;;;;17.98;nan;94460.25;5077721;28;20202;-71
2022/06/11 02:53:57;;;;;;;15.65;14.15;;;;;;;18.06;nan;94467.41;5077383;28;20201;-72
2022/06/11 02:56:25;;;;;;;15.35;14.00;;;;;;;18.05;nan;94473.47;5076926;28;20252;-71
2022/06/11 02:58:52;;;;;;;16.83;15.23;;;;;;;18.07;nan;94469.03;5077396;28;20233;-72
2022/06/11 03:01:22;;;;;;;15.98;14.40;;;;;;;18.17;nan;94476.91;5076508;28;20206;-71
2022/06/11 03:03:51;;;;;;;16.33;14.30;;;;;;;18.22;nan;94478.22;5076915;28;20206;-72
2022/06/11 03:06:22;;;;;;;16.10;13.75;;;;;;;18.23;nan;94479.84;5076473;28;20210;-72
2022/06/11 03:08:51;;;;;;;14.77;13.38;;;;;;;18.15;nan;94471.06;5076996;28;20233;-71
2022/06/11 03:11:18;;;;;;;16.50;14.90;;;;;;;18.05;nan;94478.63;5076517;28;20213;-71
2022/06/11 03:13:45;;;;;;;14.88;13.57;;;;;;;18.08;nan;94480.13;5076882;28;20201;-71
2022/06/11 03:16:13;;;;;;;16.60;14.82;;;;;;;18.08;nan;94480.94;5076369;28;20685;-71
2022/06/11 03:18:40;;;;;;;15.90;14.35;;;;;;;18.15;nan;94481.34;5075818;28;20224;-71
2022/06/11 03:21:07;;;;;;;17.05;14.88;;;;;;;18.39;nan;94489.84;5075363;28;20212;-72
2022/06/11 03:23:35;;;;;;;15.88;14.40;;;;;;;18.21;nan;94492.00;5075751;28;20214;-70
2022/06/11 03:26:03;;;;;;;16.45;14.75;;;;;;;18.21;nan;94497.16;5074479;28;20865;-71
2022/06/11 03:28:30;;;;;;;16.75;15.10;;;;;;;18.16;nan;94494.09;5075261;28;20202;-71
2022/06/11 03:30:58;;;;;;;19.17;14.90;;;;;;;18.14;nan;94492.56;5074789;28;20198;-71
2022/06/11 03:33:26;;;;;;;15.82;14.23;;;;;;;18.15;nan;94500.16;5075116;28;20297;-72
2022/06/11 03:35:53;;;;;;;16.85;15.15;;;;;;;18.13;nan;94494.31;5075331;28;20251;-70
2022/06/11 03:38:22;;;;;;;16.17;14.50;;;;;;;18.14;nan;94490.81;5075392;28;20251;-70
2022/06/11 03:40:52;;;;;;;17.45;14.55;;;;;;;18.22;nan;94488.50;5074676;28;20297;-71
2022/06/11 03:43:19;;;;;;;15.40;13.80;;;;;;;18.29;nan;94494.84;5074608;28;20310;-71
2022/06/11 03:45:46;;;;;;;18.08;14.23;;;;;;;18.25;nan;94488.28;5076088;28;20284;-71
2022/06/11 03:48:13;;;;;;;15.88;14.38;;;;;;;18.18;nan;94492.22;5076829;28;20213;-70
2022/06/11 03:50:40;;;;;;;15.93;14.32;;;;;;;18.21;nan;94497.16;5076390;28;20237;-71
2022/06/11 03:53:10;;;;;;;17.33;15.52;;;;;;;18.26;nan;94491.69;5076491;28;20218;-70
2022/06/11 03:55:38;;;;;;;16.23;14.63;;;;;;;18.27;nan;94501.84;5069313;28;20409;-71
2022/06/11 03:58:07;;;;;;;14.63;13.30;;;;;;;18.44;nan;94504.94;5075773;28;20594;-71
2022/06/11 04:03:20;;;;;;;14.50;13.20;;;;;;;18.38;nan;94489.94;5076372;28;20649;-72
2022/06/11 04:05:49;;;;;;;16.25;14.65;;;;;;;18.41;nan;94502.59;5075135;28;20263;-71
2022/06/11 04:08:17;;;;;;;15.25;13.85;;;;;;;18.48;nan;94498.66;5076021;28;20202;-71
2022/06/11 04:10:45;;;;;;;15.05;13.52;;;;;;;18.50;nan;94500.19;5075125;28;20646;-71
2022/06/11 04:13:14;;;;;;;14.20;12.90;;;;;;;18.65;nan;94495.69;5075658;28;20185;-72
2022/06/11 04:15:43;;;;;;;14.68;13.18;;;;;;;18.70;nan;94498.72;5075704;28;20197;-72
2022/06/11 04:18:17;;;;;;;15.48;14.02;;;;;;;18.57;nan;94497.94;5076195;28;20643;-71
2022/06/11 04:20:43;;;;;;;13.82;12.48;;;;;;;18.58;nan;94509.88;5075375;28;20685;-72
2022/06/11 04:23:10;;;;;;;14.75;13.35;;;;;;;18.47;nan;94502.16;5075857;28;20193;-71
2022/06/11 04:25:38;;;;;;;15.60;14.00;;;;;;;18.44;nan;94507.53;5075482;28;20234;-71
2022/06/11 04:28:05;;;;;;;12.85;11.55;;;;;;;18.45;nan;94501.44;5075320;28;20197;-71
2022/06/11 04:30:33;;;;;;;13.07;11.77;;;;;;;18.43;nan;94509.28;5075424;28;20229;-71
2022/06/11 04:33:01;;;;;;;11.80;10.80;;;;;;;18.39;nan;94510.41;5076051;28;20206;-71
2022/06/11 04:35:28;;;;;;;13.20;12.00;;;;;;;18.38;nan;94507.97;5074875;28;20206;-72
2022/06/11 04:37:55;;;;;;;12.60;11.40;;;;;;;18.14;nan;94498.53;5076022;28;20276;-72
2022/06/11 04:40:22;;;;;;;13.13;11.93;;;;;;;18.28;nan;94511.22;5075591;28;20613;-70
2022/06/11 04:42:48;;;;;;;13.73;12.40;;;;;;;18.28;nan;94510.41;5075479;28;20235;-70
2022/06/11 04:45:16;;;;;;;12.93;11.57;;;;;;;18.09;nan;94513.44;5074761;28;20217;-71
2022/06/11 04:47:44;;;;;;;12.18;11.13;;;;;;;17.83;nan;94517.03;5075904;28;20201;-70
2022/06/11 04:50:15;;;;;;;11.43;10.40;;;;;;;17.73;nan;94526.34;5074910;28;20229;-70
2022/06/11 04:52:41;;;;;;;13.27;10.93;;;;;;;17.62;nan;94525.31;5075425;28;20213;-70
2022/06/11 04:55:09;;;;;;;10.25;9.48;;;;;;;17.86;nan;94521.97;5075089;28;20201;-71
2022/06/11 04:57:36;;;;;;;12.20;9.80;;;;;;;17.89;nan;94526.91;5075842;28;20300;-70
2022/06/11 05:00:05;;;;;;;11.63;10.63;;;;;;;17.98;nan;94534.81;5075059;28;20201;-71
2022/06/11 05:02:33;;;;;;;9.77;9.02;;;;;;;17.91;nan;94530.19;5074503;28;20204;-71
2022/06/11 05:05:02;;;;;;;10.05;9.30;;;;;;;17.99;nan;94538.19;5073944;28;20216;-70
2022/06/11 05:07:29;;;;;;;41.53;28.55;;;;;;;18.09;nan;94544.31;5075586;28;20237;-74
2022/06/11 05:09:56;;;;;;;18.17;14.60;;;;;;;18.28;nan;94549.81;5077268;28;20619;-71
2022/06/11 05:12:22;;;;;;;11.77;10.75;;;;;;;18.32;nan;94540.91;5079808;28;20326;-71
2022/06/11 05:14:50;;;;;;;12.05;10.75;;;;;;;18.48;nan;94542.38;5078477;28;20206;-70
2022/06/11 05:17:17;;;;;;;11.52;9.15;;;;;;;18.39;nan;94541.28;5079453;28;20213;-71
2022/06/11 05:19:43;;;;;;;12.60;10.32;;;;;;;18.47;nan;94543.31;5078600;28;20753;-71
2022/06/11 05:22:12;;;;;;;7.65;7.20;;;;;;;18.53;nan;94545.44;5080055;28;20201;-72
2022/06/11 05:24:38;;;;;;;7.82;7.20;;;;;;;18.57;nan;94554.56;5077835;28;20200;-72
2022/06/11 05:27:08;;;;;;;8.18;7.60;;;;;;;18.58;nan;94554.47;5077920;28;20229;-71
2022/06/11 05:29:39;;;;;;;10.30;9.25;;;;;;;18.69;nan;94561.44;5076437;28;20267;-71
2022/06/11 05:32:07;;;;;;;9.93;9.02;;;;;;;18.76;nan;94564.41;5077620;28;20201;-72
2022/06/11 05:34:33;;;;;;;9.75;8.95;;;;;;;18.79;nan;94570.13;5076794;28;20197;-72
2022/06/11 05:37:00;;;;;;;10.57;9.50;;;;;;;18.74;nan;94569.66;5077509;28;20198;-72
2022/06/11 05:39:29;;;;;;;16.77;14.02;;;;;;;18.90;nan;94569.34;5077394;28;20669;-71
2022/06/11 05:41:57;;;;;;;10.35;9.32;;;;;;;19.10;nan;94568.66;5078950;28;20197;-72
2022/06/11 05:44:24;;;;;;;10.35;9.35;;;;;;;19.24;nan;94562.50;5077964;28;20198;-71
2022/06/11 05:46:52;;;;;;;9.32;8.43;;;;;;;19.29;nan;94576.69;5078870;28;20202;-70
2022/06/11 05:49:22;;;;;;;10.25;9.40;;;;;;;19.36;nan;94574.44;5078353;28;20282;-71
2022/06/11 05:51:54;;;;;;;12.07;11.05;;;;;;;19.47;nan;94571.06;5078434;28;20213;-70
2022/06/11 05:54:25;;;;;;;9.85;8.85;;;;;;;19.59;nan;94570.13;5077777;28;20212;-72
2022/06/11 05:56:54;;;;;;;9.18;8.40;;;;;;;19.52;nan;94574.97;5078848;28;20258;-72
2022/06/11 05:59:29;;;;;;;9.38;8.70;;;;;;;19.47;nan;94574.47;5078451;28;20202;-71
2022/06/11 06:02:00;;;;;;;8.40;7.80;;;;;;;19.10;nan;94578.97;5078799;28;20266;-71
2022/06/11 06:04:27;;;;;;;10.02;9.23;;;;;;;19.09;nan;94576.50;5078041;28;20679;-71
2022/06/11 06:06:54;;;;;;;9.63;8.82;;;;;;;18.87;nan;94572.13;5078716;28;20243;-71
2022/06/11 06:09:21;;;;;;;10.20;9.38;;;;;;;18.87;nan;94572.13;5077885;28;20237;-70
2022/06/11 06:11:47;;;;;;;8.80;8.10;;;;;;;18.68;nan;94583.78;5078600;28;20202;-71
2022/06/11 06:14:16;;;;;;;9.88;9.07;;;;;;;18.77;nan;94587.44;5077516;28;20206;-72
2022/06/11 06:16:43;;;;;;;9.40;8.65;;;;;;;18.75;nan;94588.50;5077965;28;20810;-71
2022/06/11 06:19:10;;;;;;;9.27;8.65;;;;;;;18.60;nan;94585.25;5077659;28;20202;-71
2022/06/11 06:21:37;;;;;;;10.30;9.13;;;;;;;18.63;nan;94590.19;5077533;28;20223;-70
2022/06/11 06:24:05;;;;;;;9.32;8.55;;;;;;;18.66;nan;94589.97;5077709;28;20803;-70
2022/06/11 06:26:32;;;;;;;10.50;9.70;;;;;;;18.73;nan;94596.31;5077733;28;21879;-71
2022/06/11 06:28:59;;;;;;;9.57;8.85;;;;;;;18.73;nan;94596.31;5077993;28;20209;-69
2022/06/11 06:31:28;;;;;;;9.63;8.93;;;;;;;18.64;nan;94592.66;5078157;28;20230;-70
2022/06/11 06:33:58;;;;;;;9.95;9.07;;;;;;;18.73;nan;94587.78;5077919;28;21167;-71
2022/06/11 06:36:25;;;;;;;9.27;8.48;;;;;;;18.76;nan;94601.25;5077148;28;20286;-71
2022/06/11 06:38:52;;;;;;;9.35;8.65;;;;;;;18.78;nan;94596.81;5077618;28;20201;-71
2022/06/11 06:41:20;;;;;;;9.43;8.73;;;;;;;18.77;nan;94596.94;5077642;28;20214;-71
2022/06/11 06:43:48;;;;;;;8.05;7.40;;;;;;;18.86;nan;94597.06;5078047;28;20205;-72
2022/06/11 06:46:15;;;;;;;10.30;9.25;;;;;;;18.74;nan;94603.13;5077166;28;20202;-73
2022/06/11 06:48:44;;;;;;;10.60;9.70;;;;;;;18.65;nan;94609.75;5077251;28;20554;-71
2022/06/11 06:51:12;;;;;;;10.45;9.55;;;;;;;18.44;nan;94602.72;5077256;28;20225;-71
2022/06/11 06:53:39;;;;;;;37.03;26.80;;;;;;;18.53;nan;94604.63;5077394;28;20197;-71
2022/06/11 06:56:07;;;;;;;14.63;12.90;;;;;;;18.58;nan;94612.81;5077702;28;21083;-72
2022/06/11 06:58:34;;;;;;;13.60;12.30;;;;;;;18.80;nan;94602.69;5077483;28;20206;-71
2022/06/11 07:01:02;;;;;;;14.63;12.73;;;;;;;18.81;nan;94606.84;5076993;28;21940;-70
2022/06/11 07:03:29;;;;;;;12.93;11.52;;;;;;;18.79;nan;94598.47;5077450;28;20206;-71
2022/06/11 07:05:57;;;;;;;12.80;11.63;;;;;;;19.17;nan;94605.09;5077233;28;20275;-71
2022/06/11 07:08:24;;;;;;;18.30;16.45;;;;;;;19.33;nan;94600.44;5076964;28;20202;-72
2022/06/11 07:10:52;;;;;;;19.15;17.25;;;;;;;19.55;nan;94599.69;5076845;28;20248;-71
2022/06/11 07:13:20;;;;;;;19.15;17.25;;;;;;;19.76;nan;94597.22;5077782;28;20204;-71
2022/06/11 07:15:51;;;;;;;23.23;19.80;;;;;;;20.08;nan;94592.94;5076311;28;20197;-71
2022/06/11 07:18:22;;;;;;;32.20;26.95;;;;;;;20.46;nan;94596.91;5076735;28;20654;-72
2022/06/11 07:20:50;;;;;;;19.80;17.52;;;;;;;20.51;nan;94608.50;5076536;28;20212;-72
2022/06/11 07:23:23;;;;;;;14.73;13.32;;;;;;;20.21;nan;94618.63;5077268;28;21564;-72
2022/06/11 07:25:53;;;;;;;14.00;12.80;;;;;;;20.04;nan;94612.22;5076026;28;20667;-72
2022/06/11 07:28:25;;;;;;;14.50;13.10;;;;;;;19.85;nan;94619.72;5076109;28;20209;-71
2022/06/11 07:30:52;;;;;;;10.20;9.27;;;;;;;19.50;nan;94630.97;5076337;28;20230;-72
2022/06/11 07:33:24;;;;;;;10.88;10.02;;;;;;;19.56;nan;94638.22;5076110;28;20259;-70
2022/06/11 07:35:52;;;;;;;9.98;9.05;;;;;;;19.49;nan;94631.88;5076312;28;20312;-72
2022/06/11 07:38:22;;;;;;;10.75;9.85;;;;;;;19.58;nan;94633.75;5076338;28;20293;-71
2022/06/11 07:40:49;;;;;;;8.98;8.23;;;;;;;19.56;nan;94635.63;5075619;28;20707;-71
2022/06/11 07:43:17;;;;;;;10.85;8.95;;;;;;;19.67;nan;94640.81;5076291;28;20657;-72
2022/06/11 07:45:46;;;;;;;8.90;8.02;;;;;;;19.53;nan;94642.81;5075793;28;20605;-70
2022/06/11 07:48:14;;;;;;;6.80;6.38;;;;;;;19.36;nan;94638.84;5076021;28;20209;-72
2022/06/11 07:50:43;;;;;;;7.90;7.20;;;;;;;19.31;nan;94643.53;5075380;28;20236;-71
2022/06/11 07:53:10;;;;;;;9.63;8.65;;;;;;;19.53;nan;94638.47;5076030;28;20205;-72
2022/06/11 07:55:40;;;;;;;7.38;6.88;;;;;;;19.93;nan;94635.41;5076236;28;20202;-71
2022/06/11 07:58:09;;;;;;;9.82;9.02;;;;;;;20.02;nan;94637.31;5076129;28;20201;-70
2022/06/11 08:00:38;;;;;;;8.10;7.50;;;;;;;20.10;nan;94627.19;5075509;28;20665;-71
2022/06/11 08:03:05;;;;;;;7.30;6.82;;;;;;;20.16;nan;94634.47;5076083;28;20202;-71
2022/06/11 08:05:33;;;;;;;7.63;7.13;;;;;;;20.47;nan;94635.50;5075435;28;20205;-72
2022/06/11 08:08:01;;;;;;;6.45;6.05;;;;;;;21.05;nan;94635.97;5074983;28;20206;-70
2022/06/11 08:10:30;;;;;;;8.25;6.65;;;;;;;21.10;nan;94640.75;5075781;28;20218;-71
2022/06/11 08:12:58;;;;;;;12.75;11.55;;;;;;;21.02;nan;94637.06;5076135;28;20386;-72
2022/06/11 08:15:25;;;;;;;7.82;7.22;;;;;;;21.14;nan;94642.16;5075203;28;20233;-71
2022/06/11 08:17:53;;;;;;;7.35;6.75;;;;;;;20.93;nan;94637.78;5075150;28;20289;-70
2022/06/11 08:20:24;;;;;;;6.00;5.63;;;;;;;20.68;nan;94644.09;5075265;28;20201;-77
2022/06/11 08:22:53;;;;;;;6.78;6.18;;;;;;;20.40;nan;94641.25;5076437;28;20254;-79
2022/06/11 08:25:21;;;;;;;5.93;5.40;;;;;;;20.39;nan;94637.84;5073898;28;20565;-80
2022/06/11 08:27:48;;;;;;;6.22;5.70;;;;;;;20.41;nan;94640.31;5075193;28;20751;-79
2022/06/11 08:30:20;;;;;;;6.65;6.13;;;;;;;20.70;nan;94647.38;5074617;28;20242;-79
2022/06/11 08:32:47;;;;;;;7.03;6.38;;;;;;;20.91;nan;94644.03;5075198;28;20594;-79
2022/06/11 08:35:16;;;;;;;7.50;7.00;;;;;;;21.59;nan;94640.97;5074986;28;20205;-79
2022/06/11 08:37:43;;;;;;;5.95;5.50;;;;;;;22.31;nan;94633.09;5075946;28;20212;-79
2022/06/11 08:40:17;;;;;;;7.13;6.65;;;;;;;22.38;nan;94639.41;5075715;28;20244;-79
2022/06/11 08:42:50;;;;;;;8.75;6.65;;;;;;;22.26;nan;94632.72;5075744;28;20668;-79
2022/06/11 08:45:21;;;;;;;5.35;5.05;;;;;;;22.07;nan;94635.22;5072547;28;21901;-78
2022/06/11 08:47:51;;;;;;;8.52;6.13;;;;;;;21.93;nan;94632.97;5074322;28;20212;-78
2022/06/11 08:50:25;;;;;;;5.55;5.15;;;;;;;21.75;nan;94629.38;5072914;28;20568;-70
2022/06/11 08:52:52;;;;;;;5.05;4.72;;;;;;;21.83;nan;94634.69;5072313;28;20202;-71
2022/06/11 08:55:21;;;;;;;6.00;5.47;;;;;;;22.17;nan;94630.91;5072231;28;20202;-73
2022/06/11 08:58:02;;;;;;;7.88;7.30;;;;;;;22.48;nan;94629.06;5068432;28;20234;-72
2022/06/11 09:00:40;;;;;;;7.13;4.70;;;;;;;22.64;nan;94628.53;5074434;28;20985;-72
2022/06/11 09:03:28;;;;;;;5.78;5.40;;;;;;;22.74;nan;94625.03;5074761;28;20205;-73
2022/06/11 09:06:12;;;;;;;5.00;4.70;;;;;;;23.36;nan;94617.78;5074905;28;20202;-72
2022/06/11 09:08:59;;;;;;;5.55;5.05;;;;;;;23.38;nan;94621.88;5074129;28;20205;-72
2022/06/11 09:11:39;;;;;;;5.10;4.80;;;;;;;23.88;nan;94621.63;5075057;28;20233;-72
2022/06/11 09:14:44;;;;;;;4.85;4.45;;;;;;;24.38;nan;94618.66;5074041;28;20205;-72
2022/06/11 09:17:38;;;;;;;3.47;3.17;;;;;;;23.29;nan;94617.50;5074940;28;20201;-70
2022/06/11 09:20:14;;;;;;;3.88;3.67;;;;;;;22.86;nan;94612.78;5061174;28;20197;-71
2022/06/11 09:23:08;;;;;;;6.15;5.75;;;;;;;23.00;nan;94614.97;5073739;28;20193;-70
2022/06/11 09:25:51;;;;;;;5.63;5.15;;;;;;;23.30;nan;94619.13;5065195;28;20747;-72
2022/06/11 09:28:31;;;;;;;12.10;9.93;;;;;;;23.71;nan;94610.22;5073482;28;20213;-70
2022/06/11 09:31:08;;;;;;;19.00;14.95;;;;;;;23.96;nan;94607.94;5074962;28;20252;-71
2022/06/11 09:33:43;;;;;;;22.30;16.15;;;;;;;24.00;nan;94622.25;5074354;28;20193;-71
2022/06/11 09:36:17;;;;;;;11.40;9.43;;;;;;;24.01;nan;94618.69;5075418;28;20617;-71
2022/06/11 09:38:52;;;;;;;18.95;16.15;;;;;;;24.18;nan;94617.94;5074300;28;20197;-71
2022/06/11 09:41:31;;;;;;;11.75;10.25;;;;;;;24.22;nan;94621.88;5075550;28;20225;-72
2022/06/11 09:44:11;;;;;;;16.55;14.30;;;;;;;24.39;nan;94625.50;5074467;28;20198;-72
2022/06/11 09:46:45;;;;;;;5.15;4.38;;;;;;;24.26;nan;94636.22;5074938;28;20197;-71
2022/06/11 09:49:35;;;;;;;5.28;4.78;;;;;;;24.36;nan;94636.19;5074019;28;20276;-76
2022/06/11 09:52:08;;;;;;;4.40;4.15;;;;;;;24.16;nan;94635.44;5073425;28;20245;-77
2022/06/11 09:54:52;;;;;;;9.50;7.78;;;;;;;23.96;nan;94641.69;5074434;28;20680;-77
2022/06/11 09:57:29;;;;;;;6.07;3.55;;;;;;;24.03;nan;94629.75;5077906;28;20212;-76
2022/06/11 10:00:01;;;;;;;5.35;4.95;;;;;;;24.63;nan;94627.53;5078721;28;20212;-76
2022/06/11 10:02:34;;;;;;;7.90;7.25;;;;;;;24.66;nan;94616.84;5077489;28;20742;-76
2022/06/11 10:05:08;;;;;;;5.22;4.82;;;;;;;24.55;nan;94614.47;5078184;28;20229;-76
2022/06/11 10:07:41;;;;;;;6.22;5.82;;;;;;;24.83;nan;94621.22;5077678;28;20325;-77
2022/06/11 10:10:14;;;;;;;5.13;4.80;;;;;;;24.55;nan;94614.47;5078640;28;20234;-77
2022/06/11 10:12:46;;;;;;;4.95;4.55;;;;;;;24.13;nan;94608.94;5077866;28;20244;-77
2022/06/11 10:15:19;;;;;;;4.13;3.92;;;;;;;23.85;nan;94608.09;5077879;28;20198;-77
2022/06/11 10:17:54;;;;;;;4.20;4.00;;;;;;;23.17;nan;94616.03;5076536;28;20209;-78
2022/06/11 10:20:27;;;;;;;4.45;4.25;;;;;;;22.72;nan;94626.09;5078187;28;20220;-77
2022/06/11 10:23:00;;;;;;;4.43;4.05;;;;;;;22.43;nan;94636.41;5078132;28;20289;-77
2022/06/11 10:25:30;;;;;;;5.78;4.70;;;;;;;21.34;nan;94636.19;5077469;28;20206;-77
2022/06/11 10:28:02;;;;;;;4.78;4.35;;;;;;;20.81;nan;94643.13;5076820;28;20284;-77
2022/06/11 10:30:45;;;;;;;6.78;5.53;;;;;;;20.34;nan;94643.34;5077700;28;20217;-76
2022/06/11 10:33:18;;;;;;;5.63;5.13;;;;;;;19.91;nan;94647.59;5077691;28;20205;-76
2022/06/11 10:35:52;;;;;;;4.93;4.63;;;;;;;19.96;nan;94653.25;5077367;28;20197;-76
2022/06/11 10:38:33;;;;;;;5.70;5.25;;;;;;;20.08;nan;94654.03;5076815;28;20216;-76
2022/06/11 10:41:04;;;;;;;5.07;4.55;;;;;;;20.01;nan;94662.28;5076131;28;20222;-76
2022/06/11 10:43:38;;;;;;;17.20;6.40;;;;;;;20.07;nan;94663.53;5075445;28;20194;-76
2022/06/11 10:46:04;;;;;;;7.13;6.45;;;;;;;20.17;nan;94667.06;5075440;28;20224;-76
2022/06/11 10:48:36;;;;;;;5.60;4.57;;;;;;;20.18;nan;94666.13;5075010;28;20628;-75
2022/06/11 10:51:13;;;;;;;5.30;4.90;;;;;;;20.31;nan;94671.13;5074904;28;20620;-77
2022/06/11 10:53:58;;;;;;;5.60;5.07;;;;;;;20.66;nan;94668.41;5075173;28;20614;-76
2022/06/11 10:56:34;;;;;;;5.95;4.25;;;;;;;20.81;nan;94674.91;5077349;28;20233;-77
2022/06/11 10:59:05;;;;;;;4.15;3.90;;;;;;;20.97;nan;94669.38;5077606;28;20213;-77
2022/06/11 11:01:35;;;;;;;4.40;4.05;;;;;;;21.24;nan;94669.75;5077141;28;20200;-76
2022/06/11 11:04:19;;;;;;;4.45;4.15;;;;;;;21.29;nan;94669.34;5076857;28;20209;-76
2022/06/11 11:06:48;;;;;;;5.47;4.15;;;;;;;21.46;nan;94665.41;5075832;28;20208;-76
2022/06/11 11:09:22;;;;;;;4.72;4.13;;;;;;;21.52;nan;94665.72;5076551;28;20209;-77
2022/06/11 11:11:53;;;;;;;3.97;3.67;;;;;;;21.41;nan;94672.72;5076905;28;20674;-76
2022/06/11 11:14:27;;;;;;;4.28;3.97;;;;;;;21.64;nan;94671.63;5076798;28;20209;-76
2022/06/11 11:17:00;;;;;;;4.35;4.05;;;;;;;21.92;nan;94662.38;5076848;28;20205;-76
2022/06/11 11:19:30;;;;;;;202.23;140.73;;;;;;;21.98;nan;94667.03;5076130;28;20684;-75
2022/06/11 11:22:08;;;;;;;16.35;14.15;;;;;;;22.13;nan;94668.34;5076763;28;20252;-76
2022/06/11 11:24:41;;;;;;;5.40;4.90;;;;;;;22.12;nan;94669.28;5075340;28;20211;-76
2022/06/11 11:27:16;;;;;;;4.35;3.95;;;;;;;22.25;nan;94659.56;5076372;28;20233;-76
2022/06/11 11:29:52;;;;;;;6.05;4.88;;;;;;;22.22;nan;94664.97;5076432;28;20201;-76
2022/06/11 11:32:31;;;;;;;4.90;4.50;;;;;;;22.34;nan;94663.91;5076630;28;20236;-76
2022/06/11 11:34:58;;;;;;;9.50;8.30;;;;;;;22.36;nan;94662.03;5076417;28;20197;-76
2022/06/11 11:37:32;;;;;;;17.60;15.55;;;;;;;22.48;nan;94656.75;5076075;28;20284;-77
2022/06/11 11:40:02;;;;;;;11.32;10.30;;;;;;;22.38;nan;94654.13;5076322;28;20229;-77
2022/06/11 11:42:35;;;;;;;9.32;8.52;;;;;;;22.25;nan;94662.13;5075874;28;20259;-78
2022/06/11 11:45:20;;;;;;;7.50;6.50;;;;;;;22.30;nan;94652.19;5073794;28;20291;-75
2022/06/11 11:47:50;;;;;;;5.50;5.00;;;;;;;22.20;nan;94655.72;5076164;28;20189;-75
2022/06/11 11:50:23;;;;;;;4.47;4.22;;;;;;;22.16;nan;94654.31;5075943;28;20202;-75
2022/06/11 11:53:04;;;;;;;6.10;5.68;;;;;;;22.29;nan;94645.38;5075641;28;20771;-76
2022/06/11 11:55:34;;;;;;;5.55;5.15;;;;;;;22.54;nan;94649.25;5076142;28;20208;-76
2022/06/11 11:58:03;;;;;;;6.53;5.80;;;;;;;22.78;nan;94640.31;5076564;28;20280;-77
2022/06/11 12:00:33;;;;;;;7.75;7.07;;;;;;;22.78;nan;94648.88;5075695;28;20202;-77
2022/06/11 12:03:05;;;;;;;10.43;9.43;;;;;;;22.50;nan;94647.91;5075178;28;20198;-76
2022/06/11 12:05:38;;;;;;;9.82;9.13;;;;;;;22.32;nan;94647.69;5075522;28;21059;-76
2022/06/11 12:08:13;;;;;;;8.52;7.63;;;;;;;22.18;nan;94658.44;5075247;28;20541;-76